sensor_id;sensor_type;location;lat;lon;timestamp;temperature;humidity
19050;DHT22;9657;45.940;12.840;2023-01-15T00:02:04;11.60;78.80
19050;DHT22;9657;45.940;12.840;2023-01-15T00:04:31;11.60;78.80
19050;DHT22;9657;45.940;12.840;2023-01-15T00:06:58;11.60;78.80
19050;DHT22;9657;45.940;12.840;2023-01-15T00:09:26;11.60;78.80
19050;DHT22;9657;45.940;12.840;2023-01-15T00:11:53;11.60;78.80
19050;DHT22;9657;45.940;12.840;2023-01-15T00:14:20;11.60;78.80
19050;DHT22;9657;45.940;12.840;2023-01-15T00:16:50;11.60;78.80
19050;DHT22;9657;45.940;12.840;2023-01-15T00:19:18;11.60;78.70
19050;DHT22;9657;45.940;12.840;2023-01-15T00:21:46;11.60;78.70
19050;DHT22;9657;45.940;12.840;2023-01-15T00:24:13;11.60;78.70
19050;DHT22;9657;45.940;12.840;2023-01-15T00:26:58;11.60;78.80
19050;DHT22;9657;45.940;12.840;2023-01-15T00:29:42;11.60;78.70
19050;DHT22;9657;45.940;12.840;2023-01-15T00:32:09;11.60;78.80
19050;DHT22;9657;45.940;12.840;2023-01-15T00:34:36;11.60;78.80
19050;DHT22;9657;45.940;12.840;2023-01-15T00:37:04;11.50;78.70
19050;DHT22;9657;45.940;12.840;2023-01-15T00:39:31;11.60;78.70
19050;DHT22;9657;45.940;12.840;2023-01-15T00:42:00;11.50;79.50
19050;DHT22;9657;45.940;12.840;2023-01-15T00:44:27;11.50;78.70
19050;DHT22;9657;45.940;12.840;2023-01-15T00:46:54;11.60;78.70
19050;DHT22;9657;45.940;12.840;2023-01-15T00:49:21;11.60;78.80
19050;DHT22;9657;45.940;12.840;2023-01-15T00:51:48;11.60;78.70
19050;DHT22;9657;45.940;12.840;2023-01-15T00:54:16;11.60;78.80
19050;DHT22;9657;45.940;12.840;2023-01-15T00:56:43;11.60;78.70
19050;DHT22;9657;45.940;12.840;2023-01-15T00:59:12;11.60;78.70
19050;DHT22;9657;45.940;12.840;2023-01-15T01:01:39;11.60;78.70
19050;DHT22;9657;45.940;12.840;2023-01-15T01:04:06;11.50;78.60
19050;DHT22;9657;45.940;12.840;2023-01-15T01:06:33;11.60;78.70
19050;DHT22;9657;45.940;12.840;2023-01-15T01:09:00;11.60;78.70
19050;DHT22;9657;45.940;12.840;2023-01-15T01:11:27;11.50;78.60
19050;DHT22;9657;45.940;12.840;2023-01-15T01:13:59;11.60;78.60
19050;DHT22;9657;45.940;12.840;2023-01-15T01:16:30;11.60;78.60
19050;DHT22;9657;45.940;12.840;2023-01-15T01:19:01;11.60;78.60
19050;DHT22;9657;45.940;12.840;2023-01-15T01:21:30;11.60;78.60
19050;DHT22;9657;45.940;12.840;2023-01-15T01:23:57;11.50;78.60
19050;DHT22;9657;45.940;12.840;2023-01-15T01:26:24;11.50;78.50
19050;DHT22;9657;45.940;12.840;2023-01-15T01:28:52;11.60;78.60
19050;DHT22;9657;45.940;12.840;2023-01-15T01:31:20;11.60;78.60
19050;DHT22;9657;45.940;12.840;2023-01-15T01:33:49;11.60;78.60
19050;DHT22;9657;45.940;12.840;2023-01-15T01:36:17;11.50;78.50
19050;DHT22;9657;45.940;12.840;2023-01-15T01:38:46;11.50;78.50
19050;DHT22;9657;45.940;12.840;2023-01-15T01:41:14;11.50;78.50
19050;DHT22;9657;45.940;12.840;2023-01-15T01:43:54;11.50;78.50
19050;DHT22;9657;45.940;12.840;2023-01-15T01:46:21;11.50;78.50
19050;DHT22;9657;45.940;12.840;2023-01-15T01:48:52;11.50;78.50
19050;DHT22;9657;45.940;12.840;2023-01-15T01:51:22;11.60;78.60
19050;DHT22;9657;45.940;12.840;2023-01-15T01:53:50;11.60;78.50
19050;DHT22;9657;45.940;12.840;2023-01-15T01:56:18;11.50;78.50
19050;DHT22;9657;45.940;12.840;2023-01-15T01:58:48;11.50;79.20
19050;DHT22;9657;45.940;12.840;2023-01-15T02:03:53;11.50;78.50
19050;DHT22;9657;45.940;12.840;2023-01-15T02:06:22;11.50;78.50
19050;DHT22;9657;45.940;12.840;2023-01-15T02:08:49;11.50;79.20
19050;DHT22;9657;45.940;12.840;2023-01-15T02:11:19;11.50;78.40
19050;DHT22;9657;45.940;12.840;2023-01-15T02:13:54;11.50;78.50
19050;DHT22;9657;45.940;12.840;2023-01-15T02:16:27;11.50;78.50
19050;DHT22;9657;45.940;12.840;2023-01-15T02:19:01;11.50;78.50
19050;DHT22;9657;45.940;12.840;2023-01-15T02:21:39;11.50;78.40
19050;DHT22;9657;45.940;12.840;2023-01-15T02:24:10;11.50;78.50
19050;DHT22;9657;45.940;12.840;2023-01-15T02:27:07;11.50;78.40
19050;DHT22;9657;45.940;12.840;2023-01-15T02:29:44;11.50;78.50
19050;DHT22;9657;45.940;12.840;2023-01-15T02:32:17;11.50;78.40
19050;DHT22;9657;45.940;12.840;2023-01-15T02:34:51;11.50;78.40
19050;DHT22;9657;45.940;12.840;2023-01-15T02:37:24;11.50;78.40
19050;DHT22;9657;45.940;12.840;2023-01-15T02:39:54;11.50;78.40
19050;DHT22;9657;45.940;12.840;2023-01-15T02:42:24;11.50;78.50
19050;DHT22;9657;45.940;12.840;2023-01-15T02:44:54;11.50;78.40
19050;DHT22;9657;45.940;12.840;2023-01-15T02:47:25;11.50;78.40
19050;DHT22;9657;45.940;12.840;2023-01-15T02:49:56;11.50;78.30
19050;DHT22;9657;45.940;12.840;2023-01-15T02:52:26;11.50;78.30
19050;DHT22;9657;45.940;12.840;2023-01-15T02:54:58;11.50;78.30
19050;DHT22;9657;45.940;12.840;2023-01-15T02:57:29;11.50;78.30
19050;DHT22;9657;45.940;12.840;2023-01-15T03:00:02;11.50;78.30
19050;DHT22;9657;45.940;12.840;2023-01-15T03:02:35;11.50;78.30
19050;DHT22;9657;45.940;12.840;2023-01-15T03:05:08;11.50;78.30
19050;DHT22;9657;45.940;12.840;2023-01-15T03:07:42;11.50;78.30
19050;DHT22;9657;45.940;12.840;2023-01-15T03:10:11;11.50;78.30
19050;DHT22;9657;45.940;12.840;2023-01-15T03:12:44;11.50;78.30
19050;DHT22;9657;45.940;12.840;2023-01-15T03:15:39;11.50;78.30
19050;DHT22;9657;45.940;12.840;2023-01-15T03:18:27;11.50;78.30
19050;DHT22;9657;45.940;12.840;2023-01-15T03:20:58;11.50;78.20
19050;DHT22;9657;45.940;12.840;2023-01-15T03:23:28;11.50;78.30
19050;DHT22;9657;45.940;12.840;2023-01-15T03:25:56;11.50;78.20
19050;DHT22;9657;45.940;12.840;2023-01-15T03:28:27;11.50;78.20
19050;DHT22;9657;45.940;12.840;2023-01-15T03:30:57;11.50;78.20
19050;DHT22;9657;45.940;12.840;2023-01-15T03:33:25;11.50;78.20
19050;DHT22;9657;45.940;12.840;2023-01-15T03:35:54;11.50;78.20
19050;DHT22;9657;45.940;12.840;2023-01-15T03:38:26;11.50;78.20
19050;DHT22;9657;45.940;12.840;2023-01-15T03:40:59;11.50;78.30
19050;DHT22;9657;45.940;12.840;2023-01-15T03:43:36;11.50;78.20
19050;DHT22;9657;45.940;12.840;2023-01-15T03:46:13;11.50;78.20
19050;DHT22;9657;45.940;12.840;2023-01-15T03:48:44;11.50;78.20
19050;DHT22;9657;45.940;12.840;2023-01-15T03:51:19;11.50;78.20
19050;DHT22;9657;45.940;12.840;2023-01-15T03:53:49;11.50;78.20
19050;DHT22;9657;45.940;12.840;2023-01-15T03:56:20;11.50;78.20
19050;DHT22;9657;45.940;12.840;2023-01-15T03:58:54;11.50;78.20
19050;DHT22;9657;45.940;12.840;2023-01-15T04:01:26;11.40;79.00
19050;DHT22;9657;45.940;12.840;2023-01-15T04:03:55;11.50;78.20
19050;DHT22;9657;45.940;12.840;2023-01-15T04:06:24;11.50;78.20
19050;DHT22;9657;45.940;12.840;2023-01-15T04:08:55;11.50;78.20
19050;DHT22;9657;45.940;12.840;2023-01-15T04:11:23;11.50;78.20
19050;DHT22;9657;45.940;12.840;2023-01-15T04:13:52;11.50;78.20
19050;DHT22;9657;45.940;12.840;2023-01-15T04:16:24;11.40;78.10
19050;DHT22;9657;45.940;12.840;2023-01-15T04:18:52;11.50;78.20
19050;DHT22;9657;45.940;12.840;2023-01-15T04:21:19;11.40;78.10
19050;DHT22;9657;45.940;12.840;2023-01-15T04:23:46;11.40;78.10
19050;DHT22;9657;45.940;12.840;2023-01-15T04:26:14;11.50;78.10
19050;DHT22;9657;45.940;12.840;2023-01-15T04:28:41;11.50;78.20
19050;DHT22;9657;45.940;12.840;2023-01-15T04:31:10;11.40;78.10
19050;DHT22;9657;45.940;12.840;2023-01-15T04:33:37;11.50;78.10
19050;DHT22;9657;45.940;12.840;2023-01-15T04:36:05;11.50;78.10
19050;DHT22;9657;45.940;12.840;2023-01-15T04:38:32;11.50;78.10
19050;DHT22;9657;45.940;12.840;2023-01-15T04:41:00;11.50;78.10
19050;DHT22;9657;45.940;12.840;2023-01-15T04:43:45;11.50;78.10
19050;DHT22;9657;45.940;12.840;2023-01-15T04:46:31;11.40;78.00
19050;DHT22;9657;45.940;12.840;2023-01-15T04:48:59;11.50;78.10
19050;DHT22;9657;45.940;12.840;2023-01-15T04:51:26;11.50;78.10
19050;DHT22;9657;45.940;12.840;2023-01-15T04:53:53;11.40;78.00
19050;DHT22;9657;45.940;12.840;2023-01-15T04:56:20;11.50;78.10
19050;DHT22;9657;45.940;12.840;2023-01-15T04:58:47;11.50;78.10
19050;DHT22;9657;45.940;12.840;2023-01-15T05:01:16;11.50;78.10
19050;DHT22;9657;45.940;12.840;2023-01-15T05:03:45;11.50;78.10
19050;DHT22;9657;45.940;12.840;2023-01-15T05:06:12;11.40;78.00
19050;DHT22;9657;45.940;12.840;2023-01-15T05:08:39;11.50;78.10
19050;DHT22;9657;45.940;12.840;2023-01-15T05:11:07;11.50;78.10
19050;DHT22;9657;45.940;12.840;2023-01-15T05:13:34;11.50;78.10
19050;DHT22;9657;45.940;12.840;2023-01-15T05:16:16;11.50;78.10
19050;DHT22;9657;45.940;12.840;2023-01-15T05:18:45;11.50;78.10
19050;DHT22;9657;45.940;12.840;2023-01-15T05:21:14;11.40;78.00
19050;DHT22;9657;45.940;12.840;2023-01-15T05:23:41;11.40;78.00
19050;DHT22;9657;45.940;12.840;2023-01-15T05:26:09;11.40;78.00
19050;DHT22;9657;45.940;12.840;2023-01-15T05:28:36;11.40;78.00
19050;DHT22;9657;45.940;12.840;2023-01-15T05:31:07;11.40;78.00
19050;DHT22;9657;45.940;12.840;2023-01-15T05:33:35;11.40;78.00
19050;DHT22;9657;45.940;12.840;2023-01-15T05:36:05;11.50;78.80
19050;DHT22;9657;45.940;12.840;2023-01-15T05:38:33;11.40;78.00
19050;DHT22;9657;45.940;12.840;2023-01-15T05:41:02;11.40;78.00
19050;DHT22;9657;45.940;12.840;2023-01-15T05:43:51;11.40;78.00
19050;DHT22;9657;45.940;12.840;2023-01-15T05:46:18;11.40;78.00
19050;DHT22;9657;45.940;12.840;2023-01-15T05:48:45;11.40;78.00
19050;DHT22;9657;45.940;12.840;2023-01-15T05:51:14;11.50;78.00
19050;DHT22;9657;45.940;12.840;2023-01-15T05:53:41;11.40;78.00
19050;DHT22;9657;45.940;12.840;2023-01-15T05:56:08;11.40;78.00
19050;DHT22;9657;45.940;12.840;2023-01-15T05:58:36;11.40;78.00
19050;DHT22;9657;45.940;12.840;2023-01-15T06:01:06;11.40;78.00
19050;DHT22;9657;45.940;12.840;2023-01-15T06:03:33;11.40;78.00
19050;DHT22;9657;45.940;12.840;2023-01-15T06:06:01;11.40;78.00
19050;DHT22;9657;45.940;12.840;2023-01-15T06:08:29;11.40;78.10
19050;DHT22;9657;45.940;12.840;2023-01-15T06:10:56;11.40;78.00
19050;DHT22;9657;45.940;12.840;2023-01-15T06:13:23;11.40;78.80
19050;DHT22;9657;45.940;12.840;2023-01-15T06:15:50;11.40;78.00
19050;DHT22;9657;45.940;12.840;2023-01-15T06:18:17;11.40;78.00
19050;DHT22;9657;45.940;12.840;2023-01-15T06:20:44;11.40;78.00
19050;DHT22;9657;45.940;12.840;2023-01-15T06:23:11;11.40;78.00
19050;DHT22;9657;45.940;12.840;2023-01-15T06:25:40;11.40;78.00
19050;DHT22;9657;45.940;12.840;2023-01-15T06:28:07;11.40;78.00
19050;DHT22;9657;45.940;12.840;2023-01-15T06:30:34;11.40;78.00
19050;DHT22;9657;45.940;12.840;2023-01-15T06:33:03;11.40;77.90
19050;DHT22;9657;45.940;12.840;2023-01-15T06:35:30;11.40;78.00
19050;DHT22;9657;45.940;12.840;2023-01-15T06:37:57;11.40;78.70
19050;DHT22;9657;45.940;12.840;2023-01-15T06:40:24;11.40;77.90
19050;DHT22;9657;45.940;12.840;2023-01-15T06:42:53;11.40;77.90
19050;DHT22;9657;45.940;12.840;2023-01-15T06:45:39;11.40;77.90
19050;DHT22;9657;45.940;12.840;2023-01-15T06:48:24;11.40;77.90
19050;DHT22;9657;45.940;12.840;2023-01-15T06:50:52;11.40;78.00
19050;DHT22;9657;45.940;12.840;2023-01-15T06:53:19;11.40;77.90
19050;DHT22;9657;45.940;12.840;2023-01-15T06:55:46;11.40;78.00
19050;DHT22;9657;45.940;12.840;2023-01-15T06:58:15;11.40;77.90
19050;DHT22;9657;45.940;12.840;2023-01-15T07:00:42;11.40;77.90
19050;DHT22;9657;45.940;12.840;2023-01-15T07:03:10;11.40;77.90
19050;DHT22;9657;45.940;12.840;2023-01-15T07:05:39;11.40;77.90
19050;DHT22;9657;45.940;12.840;2023-01-15T07:08:06;11.40;77.90
19050;DHT22;9657;45.940;12.840;2023-01-15T07:10:33;11.40;77.90
19050;DHT22;9657;45.940;12.840;2023-01-15T07:13:00;11.40;77.90
19050;DHT22;9657;45.940;12.840;2023-01-15T07:15:29;11.40;77.90
19050;DHT22;9657;45.940;12.840;2023-01-15T07:17:56;11.40;77.90
19050;DHT22;9657;45.940;12.840;2023-01-15T07:20:23;11.40;77.90
19050;DHT22;9657;45.940;12.840;2023-01-15T07:22:51;11.40;77.90
19050;DHT22;9657;45.940;12.840;2023-01-15T07:25:18;11.40;77.80
19050;DHT22;9657;45.940;12.840;2023-01-15T07:27:46;11.40;77.80
19050;DHT22;9657;45.940;12.840;2023-01-15T07:30:13;11.40;77.90
19050;DHT22;9657;45.940;12.840;2023-01-15T07:32:42;11.40;77.80
19050;DHT22;9657;45.940;12.840;2023-01-15T07:35:09;11.40;77.80
19050;DHT22;9657;45.940;12.840;2023-01-15T07:37:36;11.40;77.80
19050;DHT22;9657;45.940;12.840;2023-01-15T07:40:05;11.40;77.80
19050;DHT22;9657;45.940;12.840;2023-01-15T07:42:32;11.40;78.00
19050;DHT22;9657;45.940;12.840;2023-01-15T07:45:17;11.40;78.00
19050;DHT22;9657;45.940;12.840;2023-01-15T07:48:04;11.40;78.00
19050;DHT22;9657;45.940;12.840;2023-01-15T07:50:48;11.40;78.00
19050;DHT22;9657;45.940;12.840;2023-01-15T07:53:15;11.40;78.00
19050;DHT22;9657;45.940;12.840;2023-01-15T07:55:42;11.40;78.00
19050;DHT22;9657;45.940;12.840;2023-01-15T07:58:09;11.40;78.00
19050;DHT22;9657;45.940;12.840;2023-01-15T08:00:36;11.40;78.00
19050;DHT22;9657;45.940;12.840;2023-01-15T08:03:05;11.40;78.10
19050;DHT22;9657;45.940;12.840;2023-01-15T08:05:32;11.40;78.00
19050;DHT22;9657;45.940;12.840;2023-01-15T08:07:59;11.40;77.90
19050;DHT22;9657;45.940;12.840;2023-01-15T08:10:26;11.40;78.00
19050;DHT22;9657;45.940;12.840;2023-01-15T08:12:53;11.40;77.90
19050;DHT22;9657;45.940;12.840;2023-01-15T08:15:39;11.40;78.00
19050;DHT22;9657;45.940;12.840;2023-01-15T08:18:09;11.40;77.80
19050;DHT22;9657;45.940;12.840;2023-01-15T08:20:36;11.40;77.90
19050;DHT22;9657;45.940;12.840;2023-01-15T08:23:03;11.40;77.80
19050;DHT22;9657;45.940;12.840;2023-01-15T08:25:30;11.40;77.80
19050;DHT22;9657;45.940;12.840;2023-01-15T08:28:00;11.40;77.90
19050;DHT22;9657;45.940;12.840;2023-01-15T08:30:27;11.40;77.80
19050;DHT22;9657;45.940;12.840;2023-01-15T08:32:58;11.40;77.90
19050;DHT22;9657;45.940;12.840;2023-01-15T08:35:29;11.40;77.80
19050;DHT22;9657;45.940;12.840;2023-01-15T08:37:56;11.40;77.80
19050;DHT22;9657;45.940;12.840;2023-01-15T08:40:23;11.40;77.80
19050;DHT22;9657;45.940;12.840;2023-01-15T08:42:50;11.40;77.80
19050;DHT22;9657;45.940;12.840;2023-01-15T08:45:17;11.40;77.80
19050;DHT22;9657;45.940;12.840;2023-01-15T08:47:44;11.40;77.80
19050;DHT22;9657;45.940;12.840;2023-01-15T08:50:11;11.40;78.60
19050;DHT22;9657;45.940;12.840;2023-01-15T08:52:39;11.40;77.80
19050;DHT22;9657;45.940;12.840;2023-01-15T08:55:07;11.40;77.80
19050;DHT22;9657;45.940;12.840;2023-01-15T08:57:34;11.40;77.80
19050;DHT22;9657;45.940;12.840;2023-01-15T09:00:03;11.40;77.80
19050;DHT22;9657;45.940;12.840;2023-01-15T09:02:30;11.40;77.80
19050;DHT22;9657;45.940;12.840;2023-01-15T09:04:57;11.40;77.80
19050;DHT22;9657;45.940;12.840;2023-01-15T09:07:24;11.40;77.80
19050;DHT22;9657;45.940;12.840;2023-01-15T09:09:52;11.40;77.80
19050;DHT22;9657;45.940;12.840;2023-01-15T09:12:19;11.40;77.80
19050;DHT22;9657;45.940;12.840;2023-01-15T09:14:49;11.40;77.80
19050;DHT22;9657;45.940;12.840;2023-01-15T09:17:17;11.40;77.80
19050;DHT22;9657;45.940;12.840;2023-01-15T09:19:45;11.40;77.80
19050;DHT22;9657;45.940;12.840;2023-01-15T09:22:12;11.40;77.80
19050;DHT22;9657;45.940;12.840;2023-01-15T09:24:39;11.40;77.80
19050;DHT22;9657;45.940;12.840;2023-01-15T09:27:10;11.40;77.80
19050;DHT22;9657;45.940;12.840;2023-01-15T09:29:37;11.40;77.70
19050;DHT22;9657;45.940;12.840;2023-01-15T09:32:04;11.40;77.70
19050;DHT22;9657;45.940;12.840;2023-01-15T09:34:32;11.40;77.70
19050;DHT22;9657;45.940;12.840;2023-01-15T09:36:59;11.40;78.60
19050;DHT22;9657;45.940;12.840;2023-01-15T09:39:26;11.40;77.70
19050;DHT22;9657;45.940;12.840;2023-01-15T09:42:05;11.40;77.70
19050;DHT22;9657;45.940;12.840;2023-01-15T09:44:53;11.40;77.70
19050;DHT22;9657;45.940;12.840;2023-01-15T09:47:26;11.30;77.60
19050;DHT22;9657;45.940;12.840;2023-01-15T09:50:08;11.40;77.70
19050;DHT22;9657;45.940;12.840;2023-01-15T09:52:57;11.40;77.70
19050;DHT22;9657;45.940;12.840;2023-01-15T09:55:29;11.40;77.70
19050;DHT22;9657;45.940;12.840;2023-01-15T09:57:59;11.40;77.80
19050;DHT22;9657;45.940;12.840;2023-01-15T10:00:33;11.40;77.70
19050;DHT22;9657;45.940;12.840;2023-01-15T10:03:06;11.40;77.80
19050;DHT22;9657;45.940;12.840;2023-01-15T10:05:35;11.40;77.90
19050;DHT22;9657;45.940;12.840;2023-01-15T10:08:09;11.40;78.20
19050;DHT22;9657;45.940;12.840;2023-01-15T10:10:43;11.40;78.30
19050;DHT22;9657;45.940;12.840;2023-01-15T10:13:18;11.40;78.50
19050;DHT22;9657;45.940;12.840;2023-01-15T10:15:49;11.40;78.50
19050;DHT22;9657;45.940;12.840;2023-01-15T10:18:19;11.40;78.60
19050;DHT22;9657;45.940;12.840;2023-01-15T10:23:46;11.40;78.60
19050;DHT22;9657;45.940;12.840;2023-01-15T10:26:25;11.40;78.60
19050;DHT22;9657;45.940;12.840;2023-01-15T10:28:58;11.40;78.60
19050;DHT22;9657;45.940;12.840;2023-01-15T10:31:50;11.40;78.60
19050;DHT22;9657;45.940;12.840;2023-01-15T10:34:39;11.40;78.60
19050;DHT22;9657;45.940;12.840;2023-01-15T10:37:19;11.40;78.70
19050;DHT22;9657;45.940;12.840;2023-01-15T10:40:00;11.40;78.60
19050;DHT22;9657;45.940;12.840;2023-01-15T10:42:37;11.40;78.60
19050;DHT22;9657;45.940;12.840;2023-01-15T10:45:13;11.40;78.70
19050;DHT22;9657;45.940;12.840;2023-01-15T10:47:45;11.40;78.70
19050;DHT22;9657;45.940;12.840;2023-01-15T10:50:16;11.40;78.60
19050;DHT22;9657;45.940;12.840;2023-01-15T10:52:48;11.40;78.70
19050;DHT22;9657;45.940;12.840;2023-01-15T10:55:20;11.40;78.70
19050;DHT22;9657;45.940;12.840;2023-01-15T10:57:52;11.40;78.60
19050;DHT22;9657;45.940;12.840;2023-01-15T11:00:22;11.40;78.60
19050;DHT22;9657;45.940;12.840;2023-01-15T11:02:58;11.40;78.70
19050;DHT22;9657;45.940;12.840;2023-01-15T11:05:34;11.40;78.60
19050;DHT22;9657;45.940;12.840;2023-01-15T11:08:03;11.40;78.70
19050;DHT22;9657;45.940;12.840;2023-01-15T11:10:32;11.40;78.60
19050;DHT22;9657;45.940;12.840;2023-01-15T11:13:11;11.40;78.60
19050;DHT22;9657;45.940;12.840;2023-01-15T11:15:58;11.40;78.60
19050;DHT22;9657;45.940;12.840;2023-01-15T11:18:45;11.40;78.60
19050;DHT22;9657;45.940;12.840;2023-01-15T11:21:30;11.40;79.40
19050;DHT22;9657;45.940;12.840;2023-01-15T11:23:58;11.40;78.60
19050;DHT22;9657;45.940;12.840;2023-01-15T11:26:28;11.40;78.60
19050;DHT22;9657;45.940;12.840;2023-01-15T11:28:57;11.40;78.60
19050;DHT22;9657;45.940;12.840;2023-01-15T11:31:35;11.40;78.60
19050;DHT22;9657;45.940;12.840;2023-01-15T11:34:05;11.40;78.60
19050;DHT22;9657;45.940;12.840;2023-01-15T11:36:32;11.40;78.50
19050;DHT22;9657;45.940;12.840;2023-01-15T11:38:59;11.40;78.60
19050;DHT22;9657;45.940;12.840;2023-01-15T11:41:28;11.40;78.60
19050;DHT22;9657;45.940;12.840;2023-01-15T11:44:17;11.40;78.50
19050;DHT22;9657;45.940;12.840;2023-01-15T11:47:02;11.40;78.60
19050;DHT22;9657;45.940;12.840;2023-01-15T11:49:52;11.40;78.50
19050;DHT22;9657;45.940;12.840;2023-01-15T11:52:41;11.40;78.50
19050;DHT22;9657;45.940;12.840;2023-01-15T11:55:11;11.40;78.50
19050;DHT22;9657;45.940;12.840;2023-01-15T11:57:40;11.40;78.60
19050;DHT22;9657;45.940;12.840;2023-01-15T12:00:19;11.40;78.60
19050;DHT22;9657;45.940;12.840;2023-01-15T12:02:48;11.40;78.50
19050;DHT22;9657;45.940;12.840;2023-01-15T12:05:20;11.40;78.50
19050;DHT22;9657;45.940;12.840;2023-01-15T12:07:49;11.40;78.60
19050;DHT22;9657;45.940;12.840;2023-01-15T12:10:20;11.40;78.50
19050;DHT22;9657;45.940;12.840;2023-01-15T12:13:19;11.40;78.50
19050;DHT22;9657;45.940;12.840;2023-01-15T12:15:51;11.40;78.60
19050;DHT22;9657;45.940;12.840;2023-01-15T12:18:43;11.40;78.50
19050;DHT22;9657;45.940;12.840;2023-01-15T12:21:27;11.40;78.50
19050;DHT22;9657;45.940;12.840;2023-01-15T12:24:16;11.40;78.50
19050;DHT22;9657;45.940;12.840;2023-01-15T12:26:57;11.40;78.50
19050;DHT22;9657;45.940;12.840;2023-01-15T12:29:33;11.40;78.50
19050;DHT22;9657;45.940;12.840;2023-01-15T12:32:07;11.40;78.50
19050;DHT22;9657;45.940;12.840;2023-01-15T12:34:43;11.40;78.50
19050;DHT22;9657;45.940;12.840;2023-01-15T12:37:16;11.50;78.50
19050;DHT22;9657;45.940;12.840;2023-01-15T12:39:49;11.40;78.50
19050;DHT22;9657;45.940;12.840;2023-01-15T12:42:20;11.40;78.50
19050;DHT22;9657;45.940;12.840;2023-01-15T12:45:07;11.50;78.60
19050;DHT22;9657;45.940;12.840;2023-01-15T12:47:41;11.40;78.50
19050;DHT22;9657;45.940;12.840;2023-01-15T12:50:26;11.40;78.50
19050;DHT22;9657;45.940;12.840;2023-01-15T12:53:00;11.40;78.50
19050;DHT22;9657;45.940;12.840;2023-01-15T12:55:32;11.40;78.50
19050;DHT22;9657;45.940;12.840;2023-01-15T12:58:02;11.50;78.50
19050;DHT22;9657;45.940;12.840;2023-01-15T13:00:33;11.50;78.50
19050;DHT22;9657;45.940;12.840;2023-01-15T13:03:13;11.50;78.50
19050;DHT22;9657;45.940;12.840;2023-01-15T13:05:45;11.50;78.50
19050;DHT22;9657;45.940;12.840;2023-01-15T13:08:20;11.40;78.40
19050;DHT22;9657;45.940;12.840;2023-01-15T13:10:50;11.40;78.40
19050;DHT22;9657;45.940;12.840;2023-01-15T13:13:19;11.40;78.40
19050;DHT22;9657;45.940;12.840;2023-01-15T13:16:11;11.50;78.50
19050;DHT22;9657;45.940;12.840;2023-01-15T13:18:49;11.40;78.50
19050;DHT22;9657;45.940;12.840;2023-01-15T13:21:20;11.40;78.40
19050;DHT22;9657;45.940;12.840;2023-01-15T13:24:05;11.50;78.50
19050;DHT22;9657;45.940;12.840;2023-01-15T13:26:51;11.50;78.50
19050;DHT22;9657;45.940;12.840;2023-01-15T13:29:28;11.40;78.50
19050;DHT22;9657;45.940;12.840;2023-01-15T13:32:02;11.50;78.50
19050;DHT22;9657;45.940;12.840;2023-01-15T13:34:35;11.40;78.40
19050;DHT22;9657;45.940;12.840;2023-01-15T13:37:10;11.40;78.40
19050;DHT22;9657;45.940;12.840;2023-01-15T13:39:42;11.50;78.50
19050;DHT22;9657;45.940;12.840;2023-01-15T13:42:16;11.40;78.60
19050;DHT22;9657;45.940;12.840;2023-01-15T13:47:53;11.50;79.00
19050;DHT22;9657;45.940;12.840;2023-01-15T13:50:27;11.50;79.10
19050;DHT22;9657;45.940;12.840;2023-01-15T13:53:00;11.50;79.20
19050;DHT22;9657;45.940;12.840;2023-01-15T13:55:32;11.50;79.50
19050;DHT22;9657;45.940;12.840;2023-01-15T13:58:00;11.50;79.60
19050;DHT22;9657;45.940;12.840;2023-01-15T14:00:30;11.50;79.80
19050;DHT22;9657;45.940;12.840;2023-01-15T14:02:58;11.50;80.00
19050;DHT22;9657;45.940;12.840;2023-01-15T14:05:29;11.50;80.10
19050;DHT22;9657;45.940;12.840;2023-01-15T14:07:56;11.50;80.00
19050;DHT22;9657;45.940;12.840;2023-01-15T14:10:36;11.50;80.00
19050;DHT22;9657;45.940;12.840;2023-01-15T14:13:29;11.50;79.90
19050;DHT22;9657;45.940;12.840;2023-01-15T14:16:13;11.50;80.00
19050;DHT22;9657;45.940;12.840;2023-01-15T14:21:43;11.50;79.80
19050;DHT22;9657;45.940;12.840;2023-01-15T14:24:46;11.50;79.80
19050;DHT22;9657;45.940;12.840;2023-01-15T14:27:26;11.50;79.70
19050;DHT22;9657;45.940;12.840;2023-01-15T14:30:23;11.50;79.70
19050;DHT22;9657;45.940;12.840;2023-01-15T14:33:03;11.50;79.70
19050;DHT22;9657;45.940;12.840;2023-01-15T14:35:37;11.50;79.70
19050;DHT22;9657;45.940;12.840;2023-01-15T14:38:12;11.50;79.60
19050;DHT22;9657;45.940;12.840;2023-01-15T14:40:52;11.50;79.60
19050;DHT22;9657;45.940;12.840;2023-01-15T14:43:21;11.50;79.60
19050;DHT22;9657;45.940;12.840;2023-01-15T14:45:50;11.50;79.50
19050;DHT22;9657;45.940;12.840;2023-01-15T14:48:19;11.50;79.50
19050;DHT22;9657;45.940;12.840;2023-01-15T14:50:47;11.50;79.50
19050;DHT22;9657;45.940;12.840;2023-01-15T14:53:29;11.50;79.50
19050;DHT22;9657;45.940;12.840;2023-01-15T14:56:02;11.50;79.50
19050;DHT22;9657;45.940;12.840;2023-01-15T14:58:36;11.50;79.40
19050;DHT22;9657;45.940;12.840;2023-01-15T15:01:23;11.50;79.40
19050;DHT22;9657;45.940;12.840;2023-01-15T15:03:57;11.50;79.40
19050;DHT22;9657;45.940;12.840;2023-01-15T15:06:25;11.50;79.30
19050;DHT22;9657;45.940;12.840;2023-01-15T15:08:57;11.50;79.30
19050;DHT22;9657;45.940;12.840;2023-01-15T15:11:34;11.50;79.40
19050;DHT22;9657;45.940;12.840;2023-01-15T15:14:20;11.50;79.30
19050;DHT22;9657;45.940;12.840;2023-01-15T15:16:51;11.50;79.20
19050;DHT22;9657;45.940;12.840;2023-01-15T15:19:25;11.50;79.30
19050;DHT22;9657;45.940;12.840;2023-01-15T15:21:55;11.50;79.30
19050;DHT22;9657;45.940;12.840;2023-01-15T15:24:25;11.50;79.20
19050;DHT22;9657;45.940;12.840;2023-01-15T15:26:54;11.50;79.20
19050;DHT22;9657;45.940;12.840;2023-01-15T15:29:23;11.50;79.20
19050;DHT22;9657;45.940;12.840;2023-01-15T15:31:51;11.50;79.10
19050;DHT22;9657;45.940;12.840;2023-01-15T15:34:25;11.50;79.10
19050;DHT22;9657;45.940;12.840;2023-01-15T15:36:54;11.50;79.10
19050;DHT22;9657;45.940;12.840;2023-01-15T15:39:27;11.50;79.10
19050;DHT22;9657;45.940;12.840;2023-01-15T15:41:57;11.50;79.20
19050;DHT22;9657;45.940;12.840;2023-01-15T15:44:49;11.50;79.10
19050;DHT22;9657;45.940;12.840;2023-01-15T15:47:38;11.50;79.10
19050;DHT22;9657;45.940;12.840;2023-01-15T15:50:25;11.50;79.10
19050;DHT22;9657;45.940;12.840;2023-01-15T15:52:52;11.50;79.10
19050;DHT22;9657;45.940;12.840;2023-01-15T15:55:21;11.50;79.10
19050;DHT22;9657;45.940;12.840;2023-01-15T15:57:53;11.50;79.10
19050;DHT22;9657;45.940;12.840;2023-01-15T16:00:29;11.50;79.10
19050;DHT22;9657;45.940;12.840;2023-01-15T16:02:59;11.50;79.10
19050;DHT22;9657;45.940;12.840;2023-01-15T16:05:29;11.50;79.10
19050;DHT22;9657;45.940;12.840;2023-01-15T16:08:07;11.50;79.00
19050;DHT22;9657;45.940;12.840;2023-01-15T16:10:40;11.50;79.10
19050;DHT22;9657;45.940;12.840;2023-01-15T16:13:12;11.50;79.10